Time;durP1;ratioP1;P1;durP2;ratioP2;P2;SDS_P1;SDS_P2;PMS_P1;PMS_P2;Temp;Humidity;BMP_temperature;BMP_pressure;BME280_temperature;BME280_humidity;BME280_pressure;Samples;Min_cycle;Max_cycle;Signal;HPM_P1;HPM_P2
2021/04/26 00:02:00;;;;;;;1.70;1.60;;;8.50;46.10;;;;;;5094664;28;20293;-72
2021/04/26 00:04:26;;;;;;;2.53;2.07;;;8.30;46.10;;;;;;5094614;28;20187;-71
2021/04/26 00:06:51;;;;;;;2.10;1.90;;;8.30;46.40;;;;;;5094519;28;20916;-71
2021/04/26 00:09:17;;;;;;;2.07;1.93;;;8.10;44.90;;;;;;5094274;28;20218;-71
2021/04/26 00:11:43;;;;;;;2.00;1.70;;;8.20;45.60;;;;;;5094523;28;20203;-73
2021/04/26 00:14:09;;;;;;;1.70;1.60;;;8.10;45.10;;;;;;5093036;28;20231;-72
2021/04/26 00:16:34;;;;;;;2.37;2.10;;;8.00;45.40;;;;;;5094260;28;20258;-72
2021/04/26 00:19:01;;;;;;;5.90;2.77;;;8.10;46.50;;;;;;5094044;28;20403;-73
2021/04/26 00:21:26;;;;;;;7.32;3.08;;;8.10;47.50;;;;;;5094063;28;20254;-72
2021/04/26 00:23:52;;;;;;;3.00;1.97;;;8.10;46.90;;;;;;5094131;28;20179;-71
2021/04/26 00:26:18;;;;;;;1.93;1.83;;;7.90;46.50;;;;;;5094108;28;20491;-73
2021/04/26 00:28:43;;;;;;;1.50;1.40;;;8.10;47.10;;;;;;5093789;28;20194;-72
2021/04/26 00:31:09;;;;;;;2.33;2.13;;;8.20;45.50;;;;;;5093899;28;20208;-72
2021/04/26 00:33:35;;;;;;;1.77;1.67;;;8.10;46.20;;;;;;5094063;28;20639;-73
2021/04/26 00:36:00;;;;;;;1.63;1.53;;;8.00;45.90;;;;;;5094025;28;20248;-71
2021/04/26 00:38:26;;;;;;;3.43;2.10;;;8.10;47.20;;;;;;5093815;28;20188;-73
2021/04/26 00:40:52;;;;;;;3.10;2.80;;;8.10;46.40;;;;;;5093665;28;20171;-72
2021/04/26 00:43:17;;;;;;;2.87;1.77;;;8.10;46.60;;;;;;5093578;28;20254;-73
2021/04/26 00:45:43;;;;;;;2.57;2.47;;;8.00;46.20;;;;;;5092553;28;20174;-71
2021/04/26 00:48:09;;;;;;;3.13;2.00;;;7.90;46.30;;;;;;5093822;28;20203;-72
2021/04/26 00:50:35;;;;;;;2.10;2.00;;;7.90;46.20;;;;;;5093484;28;20250;-73
2021/04/26 00:53:03;;;;;;;2.95;2.40;;;8.10;44.50;;;;;;5093799;28;20405;-73
2021/04/26 00:55:33;;;;;;;3.22;1.55;;;8.30;45.20;;;;;;5093842;28;20180;-72
2021/04/26 00:57:58;;;;;;;2.25;2.15;;;8.10;44.80;;;;;;5093536;28;20271;-73
2021/04/26 01:00:25;;;;;;;3.43;2.20;;;8.00;44.80;;;;;;5093510;28;20689;-73
2021/04/26 01:02:51;;;;;;;6.32;2.22;;;8.10;44.90;;;;;;5093684;28;20402;-73
2021/04/26 01:05:20;;;;;;;2.33;2.13;;;8.00;46.30;;;;;;5093655;28;20186;-72
2021/04/26 01:07:46;;;;;;;2.35;1.85;;;8.10;44.80;;;;;;5093608;28;20425;-71
2021/04/26 01:10:15;;;;;;;1.65;1.55;;;8.30;43.50;;;;;;5093115;28;20214;-72
2021/04/26 01:12:43;;;;;;;1.88;1.60;;;8.40;44.40;;;;;;5092247;28;20168;-71
2021/04/26 01:15:18;;;;;;;1.90;1.77;;;8.30;44.10;;;;;;5093469;28;20302;-73
2021/04/26 01:17:51;;;;;;;3.13;2.15;;;8.30;44.40;;;;;;5093380;28;20205;-73
2021/04/26 01:21:10;;;;;;;1.83;1.73;;;8.20;45.00;;;;;;5093129;28;20538;-72
2021/04/26 01:24:00;;;;;;;2.35;2.15;;;8.20;44.40;;;;;;5051365;28;20294;-73
2021/04/26 01:26:41;;;;;;;3.13;2.10;;;8.30;44.20;;;;;;5093521;28;20172;-71
2021/04/26 01:29:25;;;;;;;1.90;1.80;;;8.20;43.60;;;;;;5093310;28;20183;-73
2021/04/26 01:32:06;;;;;;;2.05;1.95;;;8.20;44.00;;;;;;5093241;28;20230;-72
2021/04/26 01:34:32;;;;;;;4.07;2.42;;;8.30;45.40;;;;;;5093248;28;20171;-71
2021/04/26 01:36:58;;;;;;;1.80;1.70;;;8.30;44.80;;;;;;5093064;28;20195;-71
2021/04/26 01:39:25;;;;;;;2.65;1.33;;;8.10;45.00;;;;;;5093155;28;20167;-73
2021/04/26 01:41:51;;;;;;;2.22;2.13;;;8.10;45.00;;;;;;5093067;28;20183;-72
2021/04/26 01:44:19;;;;;;;2.22;1.83;;;8.10;44.60;;;;;;5093324;28;20167;-74
2021/04/26 01:46:45;;;;;;;2.72;1.75;;;8.10;45.30;;;;;;5093145;28;20211;-72
2021/04/26 01:49:11;;;;;;;2.23;1.70;;;8.00;45.60;;;;;;5092884;28;20689;-73
2021/04/26 01:51:38;;;;;;;1.52;1.42;;;8.00;44.60;;;;;;5092952;28;20520;-71
2021/04/26 01:54:04;;;;;;;1.77;1.67;;;8.00;44.60;;;;;;5093071;28;20178;-72
2021/04/26 01:56:34;;;;;;;2.07;1.80;;;8.00;44.80;;;;;;5095990;28;20289;-71
2021/04/26 01:59:01;;;;;;;2.17;1.98;;;8.00;45.40;;;;;;5096852;28;20400;-72
2021/04/26 02:01:28;;;;;;;2.03;1.80;;;8.10;45.30;;;;;;5096991;28;20257;-72
2021/04/26 02:03:59;;;;;;;2.00;1.40;;;8.00;45.50;;;;;;5096809;28;20184;-73
2021/04/26 02:06:25;;;;;;;1.98;1.67;;;8.00;45.20;;;;;;5096690;28;20186;-71
2021/04/26 02:08:51;;;;;;;2.70;2.50;;;7.80;47.20;;;;;;5096442;28;20191;-72
2021/04/26 02:11:18;;;;;;;3.28;3.05;;;7.80;45.90;;;;;;5096607;28;20211;-72
2021/04/26 02:13:45;;;;;;;1.50;1.40;;;7.50;45.30;;;;;;5096834;28;20488;-72
2021/04/26 02:16:10;;;;;;;1.95;1.60;;;7.50;46.70;;;;;;5096711;28;20178;-72
2021/04/26 02:18:36;;;;;;;2.60;1.60;;;7.50;47.90;;;;;;5096384;28;20190;-71
2021/04/26 02:21:03;;;;;;;2.37;1.97;;;7.50;47.70;;;;;;5096357;28;20174;-71
2021/04/26 02:23:30;;;;;;;3.95;2.55;;;7.50;47.50;;;;;;5096545;28;20529;-73
2021/04/26 02:25:59;;;;;;;2.88;1.70;;;7.50;47.60;;;;;;5096401;28;20684;-72
2021/04/26 02:28:25;;;;;;;3.33;3.08;;;7.60;47.30;;;;;;5096259;28;20601;-73
2021/04/26 02:30:54;;;;;;;3.30;2.63;;;7.60;45.20;;;;;;5096009;28;20203;-72
2021/04/26 02:33:25;;;;;;;1.83;1.73;;;7.60;46.40;;;;;;5096448;28;20295;-72
2021/04/26 02:36:04;;;;;;;8.45;2.33;;;7.40;46.90;;;;;;5096325;28;20193;-72
2021/04/26 02:38:33;;;;;;;2.35;1.58;;;7.30;48.30;;;;;;5096203;28;20226;-72
2021/04/26 02:41:06;;;;;;;2.53;1.63;;;7.20;47.90;;;;;;5096057;28;20178;-72
2021/04/26 02:43:37;;;;;;;2.88;1.98;;;7.30;47.80;;;;;;5096516;28;20311;-73
2021/04/26 02:46:04;;;;;;;8.25;1.90;;;7.40;46.80;;;;;;5096253;28;20252;-73
2021/04/26 02:48:31;;;;;;;3.35;1.80;;;7.30;46.90;;;;;;5096147;28;20555;-72
2021/04/26 02:50:58;;;;;;;1.77;1.63;;;7.40;47.40;;;;;;5095815;28;20194;-73
2021/04/26 02:53:26;;;;;;;2.95;1.83;;;7.20;48.60;;;;;;5094764;28;20169;-72
2021/04/26 02:55:56;;;;;;;1.85;1.67;;;7.20;48.70;;;;;;5095873;28;20195;-72
2021/04/26 02:58:24;;;;;;;2.22;2.00;;;7.10;48.80;;;;;;5095723;28;20210;-72
2021/04/26 03:00:51;;;;;;;1.98;1.52;;;6.90;49.30;;;;;;5095645;28;20170;-72
2021/04/26 03:03:19;;;;;;;2.50;1.52;;;6.80;49.10;;;;;;5095650;28;20635;-73
2021/04/26 03:05:48;;;;;;;2.85;2.33;;;6.80;49.80;;;;;;5094109;28;20776;-72
2021/04/26 03:08:15;;;;;;;1.70;1.58;;;6.80;50.70;;;;;;5095529;28;20194;-72
2021/04/26 03:10:41;;;;;;;2.33;2.13;;;6.90;48.60;;;;;;5095138;28;20215;-72
2021/04/26 03:13:07;;;;;;;2.13;1.70;;;6.90;49.50;;;;;;5095640;28;20165;-72
2021/04/26 03:15:33;;;;;;;1.40;1.30;;;7.00;48.40;;;;;;5095764;28;20170;-73
2021/04/26 03:18:00;;;;;;;2.67;1.50;;;7.00;49.10;;;;;;5095449;28;20366;-72
2021/04/26 03:20:27;;;;;;;1.45;1.10;;;7.00;48.90;;;;;;5095165;28;20206;-73
2021/04/26 03:22:53;;;;;;;2.17;1.98;;;6.90;49.10;;;;;;5095299;28;20175;-72
2021/04/26 03:25:21;;;;;;;3.10;2.05;;;6.80;49.80;;;;;;5095252;28;20177;-72
2021/04/26 03:27:49;;;;;;;1.80;1.70;;;6.70;49.60;;;;;;5095267;28;20205;-72
2021/04/26 03:30:17;;;;;;;2.00;1.40;;;6.60;50.30;;;;;;5094999;28;20277;-73
2021/04/26 03:32:44;;;;;;;1.80;1.70;;;6.60;50.30;;;;;;5095310;28;20199;-71
2021/04/26 03:35:15;;;;;;;2.10;1.90;;;6.50;50.00;;;;;;5095267;28;20172;-72
2021/04/26 03:37:44;;;;;;;1.80;1.70;;;6.60;49.50;;;;;;5095112;28;20220;-71
2021/04/26 03:40:10;;;;;;;3.35;1.60;;;6.40;49.70;;;;;;5094856;28;20519;-73
2021/04/26 03:42:36;;;;;;;2.22;1.77;;;6.40;49.60;;;;;;5095007;28;20180;-71
2021/04/26 03:45:02;;;;;;;4.40;2.00;;;6.40;51.10;;;;;;5095017;28;20257;-73
2021/04/26 03:47:28;;;;;;;2.97;1.83;;;6.40;51.30;;;;;;5094878;28;20196;-73
2021/04/26 03:49:54;;;;;;;7.40;1.13;;;6.40;50.90;;;;;;5093212;28;20180;-71
2021/04/26 03:52:19;;;;;;;3.37;2.60;;;6.20;50.80;;;;;;5094958;28;20502;-73
2021/04/26 03:54:45;;;;;;;3.30;1.53;;;6.20;51.40;;;;;;5094672;28;20169;-73
2021/04/26 03:57:11;;;;;;;1.60;1.50;;;6.20;52.00;;;;;;5094893;28;20696;-72
2021/04/26 03:59:36;;;;;;;3.70;1.70;;;6.30;50.20;;;;;;5094453;28;20199;-73
2021/04/26 04:02:02;;;;;;;2.47;1.80;;;6.10;50.90;;;;;;5094786;28;20523;-72
2021/04/26 04:04:28;;;;;;;1.53;1.13;;;6.20;50.90;;;;;;5094695;28;20529;-73
2021/04/26 04:06:54;;;;;;;2.97;2.57;;;6.20;51.10;;;;;;5094350;28;20165;-74
2021/04/26 04:09:20;;;;;;;2.58;2.13;;;6.20;51.30;;;;;;5094069;28;20200;-72
2021/04/26 04:11:46;;;;;;;2.27;2.17;;;6.10;52.10;;;;;;5094717;28;20204;-73
2021/04/26 04:14:12;;;;;;;3.10;1.57;;;6.00;52.10;;;;;;5094268;28;20643;-72
2021/04/26 04:16:37;;;;;;;3.80;2.33;;;6.00;53.00;;;;;;5094330;28;20173;-72
2021/04/26 04:19:03;;;;;;;2.30;1.67;;;5.90;52.70;;;;;;5093246;28;20411;-73
2021/04/26 04:21:30;;;;;;;1.80;1.52;;;5.90;53.10;;;;;;5094148;28;20180;-72
2021/04/26 04:23:55;;;;;;;1.23;1.15;;;5.80;52.90;;;;;;5094503;28;20176;-72
2021/04/26 04:26:21;;;;;;;2.20;1.23;;;5.60;53.50;;;;;;5094300;28;20173;-72
2021/04/26 04:28:47;;;;;;;2.80;1.38;;;5.50;54.90;;;;;;5093850;28;20189;-72
2021/04/26 04:31:13;;;;;;;1.13;0.93;;;5.50;55.20;;;;;;5094127;28;20685;-72
2021/04/26 04:33:38;;;;;;;2.03;1.63;;;5.50;54.80;;;;;;5094125;28;20212;-72
2021/04/26 04:36:05;;;;;;;1.40;1.30;;;5.70;54.90;;;;;;5092614;28;20225;-72
2021/04/26 04:38:30;;;;;;;1.67;1.60;;;5.80;54.60;;;;;;5093879;28;20318;-73
2021/04/26 04:40:57;;;;;;;2.97;1.63;;;5.90;53.50;;;;;;5093607;28;20208;-73
2021/04/26 04:43:24;;;;;;;2.60;2.25;;;5.90;52.70;;;;;;5093906;28;20179;-72
2021/04/26 04:45:50;;;;;;;1.73;1.63;;;6.00;53.90;;;;;;5093836;28;20263;-73
2021/04/26 04:48:16;;;;;;;1.98;1.80;;;6.10;53.60;;;;;;5092389;28;20199;-73
2021/04/26 04:50:42;;;;;;;2.00;1.30;;;6.10;53.50;;;;;;5093473;28;20295;-71
2021/04/26 04:53:08;;;;;;;1.73;1.63;;;6.20;53.30;;;;;;5093654;28;20176;-72
2021/04/26 04:55:34;;;;;;;1.80;1.70;;;6.10;53.60;;;;;;5093663;28;20219;-73
2021/04/26 04:58:00;;;;;;;2.60;2.40;;;6.20;53.60;;;;;;5093445;28;20450;-72
2021/04/26 05:00:26;;;;;;;2.93;2.10;;;6.40;53.00;;;;;;5093344;28;20165;-72
2021/04/26 05:02:52;;;;;;;1.88;1.65;;;6.60;52.20;;;;;;5093639;28;20929;-73
2021/04/26 05:05:17;;;;;;;1.80;1.70;;;6.80;53.10;;;;;;5093458;28;20219;-72
2021/04/26 05:07:43;;;;;;;2.40;2.20;;;7.00;52.90;;;;;;5093366;28;20189;-72
2021/04/26 05:10:09;;;;;;;2.73;1.97;;;7.20;52.60;;;;;;5093014;28;20238;-73
2021/04/26 05:12:35;;;;;;;1.13;1.03;;;7.50;52.00;;;;;;5093496;28;20225;-72
2021/04/26 05:15:02;;;;;;;6.10;2.80;;;7.80;51.60;;;;;;5093506;28;20913;-72
2021/04/26 05:17:27;;;;;;;1.55;1.45;;;7.90;50.40;;;;;;5093371;28;20433;-73
2021/04/26 05:19:54;;;;;;;2.13;1.93;;;8.10;50.70;;;;;;5093153;28;20528;-72
2021/04/26 05:22:20;;;;;;;5.10;1.63;;;8.50;50.10;;;;;;5093649;28;20394;-73
2021/04/26 05:24:45;;;;;;;1.70;1.57;;;8.90;47.90;;;;;;5093341;28;20184;-73
2021/04/26 05:27:11;;;;;;;4.60;1.37;;;9.30;48.10;;;;;;5093280;28;20188;-73
2021/04/26 05:29:37;;;;;;;5.33;2.23;;;9.90;46.90;;;;;;5094907;28;20214;-72
2021/04/26 05:32:03;;;;;;;3.27;1.90;;;10.40;45.90;;;;;;5097472;28;20188;-73
2021/04/26 05:34:29;;;;;;;2.17;2.08;;;10.80;43.10;;;;;;5097310;28;20252;-71
2021/04/26 05:36:55;;;;;;;2.40;1.90;;;11.30;42.60;;;;;;5096476;28;20200;-72
2021/04/26 05:39:21;;;;;;;1.90;1.77;;;12.00;41.20;;;;;;5097311;28;20766;-73
2021/04/26 05:41:46;;;;;;;3.73;1.67;;;12.40;38.80;;;;;;5096276;28;20203;-72
2021/04/26 05:44:12;;;;;;;2.40;2.10;;;12.90;37.30;;;;;;5097271;28;20172;-72
2021/04/26 05:46:38;;;;;;;2.00;1.30;;;13.50;36.20;;;;;;5096266;28;20223;-73
2021/04/26 05:49:04;;;;;;;2.43;2.00;;;14.00;35.70;;;;;;5096741;28;20579;-72
2021/04/26 05:51:29;;;;;;;1.67;1.43;;;14.60;35.10;;;;;;5096976;28;20204;-73
2021/04/26 05:53:56;;;;;;;2.20;2.03;;;14.90;35.70;;;;;;5096067;28;20424;-73
2021/04/26 05:56:22;;;;;;;7.07;2.30;;;14.80;35.10;;;;;;5097146;28;20213;-71
2021/04/26 05:58:49;;;;;;;2.23;2.03;;;14.60;35.40;;;;;;5095834;28;20426;-72
2021/04/26 06:01:15;;;;;;;2.90;2.23;;;14.40;35.30;;;;;;5097001;28;20176;-73
2021/04/26 06:03:43;;;;;;;3.00;1.70;;;14.10;36.00;;;;;;5096804;28;20407;-73
2021/04/26 06:06:09;;;;;;;4.57;2.40;;;14.20;36.00;;;;;;5095956;28;20773;-72
2021/04/26 06:08:35;;;;;;;1.90;1.70;;;14.00;36.30;;;;;;5096628;28;20421;-73
2021/04/26 06:11:01;;;;;;;1.67;1.57;;;14.10;35.50;;;;;;5096346;28;20204;-73
2021/04/26 06:13:26;;;;;;;2.83;2.40;;;14.30;34.70;;;;;;5096859;28;20161;-74
2021/04/26 06:15:52;;;;;;;2.40;1.60;;;14.20;35.50;;;;;;5096725;28;20406;-72
2021/04/26 06:18:21;;;;;;;1.87;1.77;;;14.20;35.70;;;;;;5096598;28;20263;-74
2021/04/26 06:20:48;;;;;;;2.40;2.20;;;14.30;35.70;;;;;;5096372;28;20493;-73
2021/04/26 06:23:15;;;;;;;2.47;2.27;;;14.60;35.70;;;;;;5096506;28;20407;-72
2021/04/26 06:25:41;;;;;;;4.33;3.07;;;15.00;35.70;;;;;;5096557;28;20406;-73
2021/04/26 06:28:08;;;;;;;1.90;1.80;;;15.90;35.00;;;;;;5096474;28;20483;-71
2021/04/26 06:30:34;;;;;;;3.67;3.37;;;16.90;33.90;;;;;;5096093;28;20606;-72
2021/04/26 06:32:59;;;;;;;2.80;1.83;;;17.70;31.70;;;;;;5096238;28;20402;-72
2021/04/26 06:35:25;;;;;;;2.43;2.20;;;17.80;30.60;;;;;;5096221;28;20780;-74
2021/04/26 06:37:51;;;;;;;2.60;2.37;;;18.10;30.40;;;;;;5096065;28;20189;-72
2021/04/26 06:40:17;;;;;;;2.13;1.93;;;18.20;30.00;;;;;;5095894;28;20404;-72
2021/04/26 06:42:43;;;;;;;2.53;1.80;;;17.90;30.80;;;;;;5095561;28;20177;-72
2021/04/26 06:45:10;;;;;;;2.67;2.47;;;17.80;31.00;;;;;;5095960;28;20165;-73
2021/04/26 06:47:37;;;;;;;3.03;2.67;;;17.80;30.40;;;;;;5096096;28;20423;-73
2021/04/26 06:50:03;;;;;;;2.47;2.27;;;17.20;31.70;;;;;;5095812;28;20789;-73
2021/04/26 06:52:29;;;;;;;1.50;1.40;;;16.70;31.20;;;;;;5095889;28;20414;-72
2021/04/26 06:54:55;;;;;;;2.63;2.40;;;16.70;31.40;;;;;;5095932;28;20881;-72
2021/04/26 06:57:20;;;;;;;2.40;2.20;;;16.40;31.50;;;;;;5095760;28;20215;-73
2021/04/26 06:59:46;;;;;;;3.63;2.30;;;16.60;32.40;;;;;;5095515;28;20238;-73
2021/04/26 07:02:12;;;;;;;3.10;2.80;;;17.20;31.20;;;;;;5095881;28;20165;-72
2021/04/26 07:04:38;;;;;;;2.67;2.47;;;17.90;30.60;;;;;;5095666;28;20247;-73
2021/04/26 07:07:04;;;;;;;2.97;2.67;;;17.80;31.20;;;;;;5095711;28;20844;-73
2021/04/26 07:09:30;;;;;;;2.53;2.13;;;17.60;31.60;;;;;;5095593;28;20199;-71
2021/04/26 07:11:57;;;;;;;3.43;2.17;;;17.70;30.60;;;;;;5095601;28;20541;-73
2021/04/26 07:14:23;;;;;;;3.50;2.67;;;17.40;30.90;;;;;;5095665;28;20538;-72
2021/04/26 07:16:50;;;;;;;3.23;2.93;;;16.40;31.60;;;;;;5095351;28;20462;-73
2021/04/26 07:19:15;;;;;;;4.23;2.60;;;15.50;32.40;;;;;;5095185;28;20451;-73
2021/04/26 07:21:41;;;;;;;2.30;2.07;;;14.90;33.10;;;;;;5095422;28;20404;-73
2021/04/26 07:24:07;;;;;;;3.00;2.70;;;14.50;33.70;;;;;;5095508;28;20169;-73
2021/04/26 07:26:33;;;;;;;2.70;2.50;;;14.70;33.70;;;;;;5095413;28;20222;-72
2021/04/26 07:28:59;;;;;;;2.20;2.00;;;15.10;32.90;;;;;;5094934;28;20945;-72
2021/04/26 07:31:24;;;;;;;4.23;2.20;;;15.30;32.80;;;;;;5095130;28;20565;-73
2021/04/26 07:33:50;;;;;;;2.47;2.27;;;15.30;34.80;;;;;;5095298;28;20239;-74
2021/04/26 07:36:16;;;;;;;3.77;2.77;;;14.50;34.90;;;;;;5095121;28;20169;-73
2021/04/26 07:38:42;;;;;;;3.03;2.33;;;13.70;34.50;;;;;;5094720;28;20184;-72
2021/04/26 07:41:07;;;;;;;3.37;2.43;;;13.60;35.20;;;;;;5095086;28;20403;-72
2021/04/26 07:43:33;;;;;;;3.97;2.70;;;13.80;35.10;;;;;;5095112;28;20170;-72
2021/04/26 07:45:59;;;;;;;3.33;3.10;;;14.00;35.50;;;;;;5094806;28;20173;-72
2021/04/26 07:48:24;;;;;;;2.50;2.00;;;14.40;35.90;;;;;;5094722;28;20191;-73
2021/04/26 07:50:50;;;;;;;3.30;2.70;;;14.70;34.80;;;;;;5094467;28;20195;-71
2021/04/26 07:53:16;;;;;;;2.83;2.57;;;15.00;35.00;;;;;;5093753;28;20172;-72
2021/04/26 07:55:42;;;;;;;2.47;1.90;;;16.00;34.70;;;;;;5094645;28;20169;-73
2021/04/26 07:58:08;;;;;;;2.93;2.63;;;17.10;32.60;;;;;;5094532;28;20182;-73
2021/04/26 08:00:34;;;;;;;2.50;2.30;;;18.20;31.40;;;;;;5094422;28;20985;-73
2021/04/26 08:02:59;;;;;;;3.63;2.63;;;18.70;31.80;;;;;;5094624;28;20509;-73
2021/04/26 08:05:25;;;;;;;2.53;2.33;;;19.70;30.70;;;;;;5094617;28;20416;-72
2021/04/26 08:07:51;;;;;;;6.20;2.17;;;20.80;29.00;;;;;;5094537;28;20196;-73
2021/04/26 08:10:17;;;;;;;3.20;2.80;;;21.30;29.80;;;;;;5093995;28;20224;-74
2021/04/26 08:12:42;;;;;;;3.27;3.00;;;22.70;27.40;;;;;;5094331;28;20169;-72
2021/04/26 08:15:10;;;;;;;2.70;2.50;;;22.70;26.30;;;;;;5094386;28;20370;-72
2021/04/26 08:17:36;;;;;;;3.10;2.80;;;21.80;27.50;;;;;;5093413;28;20220;-74
2021/04/26 08:20:04;;;;;;;3.63;3.30;;;22.10;27.70;;;;;;5094156;28;20432;-72
2021/04/26 08:22:30;;;;;;;2.80;2.60;;;22.20;27.90;;;;;;5094187;28;20896;-73
2021/04/26 08:24:56;;;;;;;3.50;3.20;;;22.70;26.40;;;;;;5094285;28;20401;-72
2021/04/26 08:27:21;;;;;;;3.67;2.63;;;22.60;25.90;;;;;;5094085;28;20211;-72
2021/04/26 08:29:47;;;;;;;3.20;2.90;;;22.60;26.40;;;;;;5093946;28;20216;-73
2021/04/26 08:32:12;;;;;;;2.87;2.63;;;23.40;26.40;;;;;;5094158;28;20234;-73
2021/04/26 08:34:38;;;;;;;4.80;4.20;;;24.90;25.10;;;;;;5094183;28;20169;-72
2021/04/26 08:37:04;;;;;;;3.67;3.30;;;24.10;24.20;;;;;;5094124;28;20190;-74
2021/04/26 08:39:30;;;;;;;4.30;3.20;;;23.80;24.80;;;;;;5093695;28;20206;-72
2021/04/26 08:41:55;;;;;;;3.03;2.73;;;23.70;25.10;;;;;;5093883;28;20180;-73
2021/04/26 08:44:21;;;;;;;5.30;4.10;;;23.90;25.60;;;;;;5093903;28;20288;-72
2021/04/26 08:46:47;;;;;;;3.43;3.00;;;23.50;24.60;;;;;;5093782;28;20175;-73
2021/04/26 08:49:17;;;;;;;3.47;2.97;;;22.90;25.40;;;;;;5093546;28;20377;-73
2021/04/26 08:51:44;;;;;;;3.70;3.33;;;23.00;25.20;;;;;;5093690;28;20192;-73
2021/04/26 08:54:13;;;;;;;8.40;2.30;;;23.10;25.90;;;;;;5093775;28;20391;-73
2021/04/26 08:56:39;;;;;;;6.27;3.60;;;23.80;24.50;;;;;;5093550;28;20370;-73
2021/04/26 08:59:06;;;;;;;5.27;3.13;;;23.20;25.20;;;;;;5093428;28;20753;-73
2021/04/26 09:01:31;;;;;;;4.43;2.90;;;23.00;25.00;;;;;;5093802;28;20191;-73
2021/04/26 09:04:06;;;;;;;6.83;3.10;;;23.70;24.60;;;;;;5093284;28;20492;-73
2021/04/26 09:07:02;;;;;;;3.20;2.90;;;24.30;24.50;;;;;;5093684;28;20172;-72
2021/04/26 09:09:35;;;;;;;4.23;3.30;;;24.40;25.30;;;;;;5093413;28;20474;-72
2021/04/26 09:12:01;;;;;;;4.83;2.90;;;25.00;24.40;;;;;;5093478;28;20457;-73
2021/04/26 09:14:36;;;;;;;3.30;2.50;;;24.10;24.50;;;;;;5093603;28;20389;-73
2021/04/26 09:17:25;;;;;;;3.63;3.30;;;24.30;24.30;;;;;;5093276;28;20788;-73
2021/04/26 09:19:51;;;;;;;4.10;3.67;;;23.90;24.80;;;;;;5093257;28;20402;-72
2021/04/26 09:22:37;;;;;;;5.17;4.40;;;24.00;25.10;;;;;;5093466;28;20725;-72
2021/04/26 09:25:25;;;;;;;5.50;3.73;;;24.90;24.80;;;;;;5093295;28;20394;-72
2021/04/26 09:27:56;;;;;;;5.00;3.93;;;25.20;25.00;;;;;;5093650;28;20421;-72
2021/04/26 09:30:49;;;;;;;3.33;3.03;;;24.80;24.80;;;;;;5093242;28;20841;-73
2021/04/26 09:33:35;;;;;;;3.97;3.60;;;24.90;24.60;;;;;;5093521;28;20423;-73
2021/04/26 09:36:03;;;;;;;3.30;3.00;;;24.50;24.70;;;;;;5093469;28;20384;-72
2021/04/26 09:38:35;;;;;;;3.70;3.03;;;24.20;24.40;;;;;;5093246;28;20435;-72
2021/04/26 09:41:16;;;;;;;4.53;2.83;;;24.50;24.60;;;;;;5091780;28;20905;-72
2021/04/26 09:43:44;;;;;;;3.33;2.90;;;26.20;25.10;;;;;;5093282;28;20407;-73
2021/04/26 09:46:12;;;;;;;3.30;3.00;;;26.50;23.00;;;;;;5093288;28;20402;-73
2021/04/26 09:48:38;;;;;;;3.23;2.87;;;26.20;22.80;;;;;;5092982;28;20540;-72
2021/04/26 09:51:04;;;;;;;3.33;3.03;;;26.50;22.70;;;;;;5092871;28;20572;-73
2021/04/26 09:53:41;;;;;;;3.63;3.27;;;26.70;22.70;;;;;;5091838;28;21041;-72
2021/04/26 09:56:17;;;;;;;3.23;2.93;;;26.00;23.90;;;;;;5093216;28;20765;-72
2021/04/26 09:58:54;;;;;;;3.50;3.20;;;25.60;23.70;;;;;;5092650;28;20422;-73
2021/04/26 10:01:20;;;;;;;3.40;3.10;;;25.60;24.50;;;;;;5091737;28;20810;-73
2021/04/26 10:03:46;;;;;;;5.20;3.47;;;24.30;23.50;;;;;;5092996;28;20407;-72
2021/04/26 10:06:17;;;;;;;3.87;3.17;;;23.70;24.70;;;;;;5093049;28;20843;-74
2021/04/26 10:08:44;;;;;;;4.30;3.27;;;23.70;24.40;;;;;;5092686;28;20859;-72
2021/04/26 10:11:10;;;;;;;3.50;3.20;;;23.20;25.30;;;;;;5092638;28;20480;-74
2021/04/26 10:13:37;;;;;;;3.13;2.73;;;23.70;24.90;;;;;;5093286;28;20738;-72
2021/04/26 10:16:04;;;;;;;3.67;2.50;;;24.20;24.80;;;;;;5093618;28;20740;-72
2021/04/26 10:18:37;;;;;;;3.10;2.80;;;24.80;24.30;;;;;;5096681;28;20772;-72
2021/04/26 10:21:23;;;;;;;4.40;3.30;;;24.10;24.00;;;;;;5096933;28;20468;-73
2021/04/26 10:23:50;;;;;;;3.50;3.20;;;24.50;24.50;;;;;;5088916;28;20735;-72
2021/04/26 10:26:37;;;;;;;5.03;3.17;;;24.20;24.10;;;;;;5096626;28;20410;-72
2021/04/26 10:29:28;;;;;;;3.37;2.80;;;24.00;24.50;;;;;;5096075;28;20397;-72
2021/04/26 10:31:57;;;;;;;3.20;2.50;;;23.30;26.50;;;;;;5090884;28;20466;-73
2021/04/26 10:34:23;;;;;;;6.30;3.33;;;23.00;25.60;;;;;;5096268;28;20403;-72
2021/04/26 10:37:03;;;;;;;3.40;3.03;;;23.00;26.00;;;;;;5096340;28;20719;-72
2021/04/26 10:39:32;;;;;;;6.73;3.80;;;22.60;25.80;;;;;;5096167;28;20391;-73
2021/04/26 10:42:10;;;;;;;3.73;3.43;;;23.30;26.30;;;;;;5096646;28;20407;-73
2021/04/26 10:44:39;;;;;;;4.30;3.90;;;23.20;25.80;;;;;;5095982;28;20402;-73
2021/04/26 10:47:14;;;;;;;4.20;3.60;;;22.60;25.80;;;;;;5096154;28;20507;-73
2021/04/26 10:49:41;;;;;;;4.30;3.10;;;22.50;26.80;;;;;;5095779;28;20944;-72
2021/04/26 10:52:25;;;;;;;3.23;2.63;;;22.00;26.70;;;;;;5095963;28;20453;-72
2021/04/26 10:54:51;;;;;;;5.50;4.00;;;21.30;27.40;;;;;;5095748;28;20395;-72
2021/04/26 10:57:42;;;;;;;3.13;2.87;;;20.70;27.70;;;;;;5095707;28;20514;-73
2021/04/26 11:00:32;;;;;;;2.97;2.50;;;20.10;28.20;;;;;;5095825;28;20171;-73
2021/04/26 11:02:59;;;;;;;3.13;2.80;;;19.80;28.30;;;;;;5095956;28;20955;-73
2021/04/26 11:05:29;;;;;;;4.67;3.87;;;19.60;28.80;;;;;;5095793;28;20498;-73
2021/04/26 11:08:13;;;;;;;3.93;3.63;;;18.80;29.10;;;;;;5094400;28;20453;-72
2021/04/26 11:10:44;;;;;;;4.40;3.87;;;17.90;30.20;;;;;;5095376;28;20827;-73
2021/04/26 11:13:32;;;;;;;3.23;2.90;;;17.70;31.00;;;;;;5095765;28;20410;-72
2021/04/26 11:16:17;;;;;;;2.60;2.50;;;18.10;30.30;;;;;;5095469;28;20426;-72
2021/04/26 11:19:10;;;;;;;3.30;3.10;;;17.80;30.70;;;;;;5096093;28;20816;-72
2021/04/26 11:21:45;;;;;;;3.77;3.30;;;18.00;31.70;;;;;;5095565;28;20808;-73
2021/04/26 11:24:25;;;;;;;2.77;2.57;;;18.40;30.70;;;;;;5095487;28;20402;-71
2021/04/26 11:27:13;;;;;;;4.57;2.37;;;18.50;32.10;;;;;;5095110;28;20404;-72
2021/04/26 11:29:41;;;;;;;2.90;2.70;;;19.00;31.40;;;;;;5095222;28;20406;-73
2021/04/26 11:32:08;;;;;;;3.57;3.27;;;18.60;30.20;;;;;;5095283;28;20451;-72
2021/04/26 11:35:04;;;;;;;4.30;3.70;;;18.50;31.10;;;;;;5095292;28;20405;-72
2021/04/26 11:37:38;;;;;;;3.90;3.30;;;18.10;31.30;;;;;;5094095;28;20449;-73
2021/04/26 11:40:33;;;;;;;3.37;2.90;;;17.70;31.50;;;;;;5094832;28;20833;-73
2021/04/26 11:43:05;;;;;;;3.70;3.37;;;17.60;32.30;;;;;;5086210;28;20415;-72
2021/04/26 11:45:31;;;;;;;3.50;2.60;;;17.70;32.60;;;;;;5094921;28;20438;-73
2021/04/26 11:47:56;;;;;;;3.63;3.27;;;17.60;33.50;;;;;;5094739;28;20422;-72
2021/04/26 11:50:22;;;;;;;5.00;3.23;;;17.90;33.60;;;;;;5094729;28;20461;-72
2021/04/26 11:52:48;;;;;;;7.33;3.17;;;18.10;34.20;;;;;;5095457;28;20658;-72
2021/04/26 11:55:17;;;;;;;2.70;2.50;;;17.60;33.60;;;;;;5094880;28;20246;-73
2021/04/26 11:57:54;;;;;;;2.37;2.20;;;17.50;33.70;;;;;;5094664;28;20188;-73
2021/04/26 12:00:25;;;;;;;3.23;2.90;;;17.70;32.80;;;;;;5094380;28;20441;-73
2021/04/26 12:02:53;;;;;;;2.87;2.57;;;17.80;32.50;;;;;;5094772;28;20494;-73
2021/04/26 12:05:24;;;;;;;2.83;2.63;;;18.00;33.10;;;;;;5093288;28;20962;-73
2021/04/26 12:07:54;;;;;;;3.53;2.80;;;18.20;32.40;;;;;;5094496;28;20510;-72
2021/04/26 12:10:26;;;;;;;4.70;2.47;;;18.20;31.00;;;;;;5094184;28;20426;-73
2021/04/26 12:13:05;;;;;;;3.03;2.73;;;18.00;31.00;;;;;;5094433;28;20449;-72
2021/04/26 12:15:35;;;;;;;3.20;2.20;;;18.10;32.80;;;;;;5094652;28;20391;-73
2021/04/26 12:18:01;;;;;;;7.53;2.80;;;18.30;30.90;;;;;;5094357;28;20441;-73
2021/04/26 12:20:31;;;;;;;8.80;3.20;;;18.40;31.40;;;;;;5094023;28;20869;-72
2021/04/26 12:23:03;;;;;;;4.17;2.20;;;18.60;30.40;;;;;;5094178;28;20406;-71
2021/04/26 12:25:35;;;;;;;5.43;3.70;;;18.40;31.30;;;;;;5094211;28;20399;-73
2021/04/26 12:28:09;;;;;;;3.57;3.20;;;17.90;31.00;;;;;;5093879;28;20472;-73
2021/04/26 12:30:37;;;;;;;3.90;3.60;;;17.50;29.40;;;;;;5093688;28;20446;-73
2021/04/26 12:33:03;;;;;;;3.10;2.30;;;17.40;29.90;;;;;;5093942;28;20424;-73
2021/04/26 12:35:31;;;;;;;5.17;2.23;;;17.60;29.90;;;;;;5093933;28;20897;-72
2021/04/26 12:37:59;;;;;;;3.37;3.03;;;17.60;29.90;;;;;;5093952;28;20419;-73
2021/04/26 12:40:27;;;;;;;4.10;2.90;;;17.50;29.30;;;;;;5093228;28;20453;-73
2021/04/26 12:42:53;;;;;;;3.20;2.90;;;17.50;31.40;;;;;;5094041;28;20403;-72
2021/04/26 12:45:42;;;;;;;2.37;2.17;;;17.50;31.70;;;;;;5093916;28;20407;-73
2021/04/26 12:48:09;;;;;;;3.03;1.80;;;17.40;30.00;;;;;;5094070;28;20601;-71
2021/04/26 12:50:36;;;;;;;3.03;2.80;;;17.60;30.80;;;;;;5093559;28;20965;-73
2021/04/26 12:53:26;;;;;;;3.07;2.30;;;17.70;31.60;;;;;;5093818;28;20403;-73
2021/04/26 12:55:55;;;;;;;3.23;2.90;;;17.90;29.10;;;;;;5093834;28;20411;-73
2021/04/26 12:58:29;;;;;;;2.17;1.97;;;17.60;29.20;;;;;;5093624;28;20426;-73
2021/04/26 13:01:22;;;;;;;3.00;2.73;;;17.80;28.60;;;;;;5093513;28;20486;-72